Time;durP1;ratioP1;P1;durP2;ratioP2;P2;SDS_P1;SDS_P2;PMS_P1;PMS_P2;Temp;Humidity;BMP_temperature;BMP_pressure;BME280_temperature;BME280_humidity;BME280_pressure;Samples;Min_cycle;Max_cycle;Signal;HPM_P1;HPM_P2
2020/12/28 00:01:33;;;;;;;2.15;0.82;;;;;;;3.03;87.63;96020.97;4930963;29;20020;-76
2020/12/28 00:03:59;;;;;;;0.50;0.50;;;;;;;2.91;87.66;96016.25;4939041;29;20020;-76
2020/12/28 00:06:25;;;;;;;1.30;0.77;;;;;;;2.90;87.69;96028.94;4921123;29;20060;-74
2020/12/28 00:08:50;;;;;;;2.22;1.20;;;;;;;2.85;87.81;96021.03;4908260;29;20435;-74
2020/12/28 00:11:19;;;;;;;3.25;0.93;;;;;;;2.80;87.44;96026.59;4918831;29;20398;-74
2020/12/28 00:13:46;;;;;;;5.68;1.13;;;;;;;2.76;88.08;96017.56;4925699;29;20435;-74
2020/12/28 00:16:12;;;;;;;3.20;1.58;;;;;;;2.65;88.08;96011.75;4939682;29;20043;-77
2020/12/28 00:18:41;;;;;;;5.68;1.13;;;;;;;2.69;87.36;96020.00;4944181;29;20106;-76
2020/12/28 00:21:07;;;;;;;3.80;1.08;;;;;;;2.69;88.59;96017.28;4919067;29;20038;-76
2020/12/28 00:23:34;;;;;;;3.90;1.00;;;;;;;2.60;87.82;96015.41;4944030;29;20019;-78
2020/12/28 00:25:59;;;;;;;5.22;1.25;;;;;;;2.61;88.12;96017.00;4923260;29;20079;-77
2020/12/28 00:28:25;;;;;;;3.30;1.02;;;;;;;2.60;88.47;96036.97;4941452;29;20027;-75
2020/12/28 00:30:53;;;;;;;1.52;1.00;;;;;;;2.44;88.56;96022.44;4906761;29;20497;-78
2020/12/28 00:33:18;;;;;;;6.78;1.60;;;;;;;2.47;87.96;96032.59;4927028;29;20040;-77
2020/12/28 00:35:44;;;;;;;1.08;1.08;;;;;;;2.44;88.09;96038.63;4946340;29;20115;-75
2020/12/28 00:38:14;;;;;;;2.55;0.88;;;;;;;2.34;88.03;96028.94;4928084;29;20102;-76
2020/12/28 00:40:39;;;;;;;2.13;0.95;;;;;;;2.35;87.97;96040.53;4943084;29;20034;-76
2020/12/28 00:43:05;;;;;;;1.10;1.10;;;;;;;2.29;88.04;96036.41;4922518;29;20106;-77
2020/12/28 00:45:30;;;;;;;3.30;1.30;;;;;;;2.17;88.39;96029.75;4939977;29;20031;-77
2020/12/28 00:47:56;;;;;;;1.52;1.02;;;;;;;2.18;87.22;96025.97;4925733;29;20575;-77
2020/12/28 00:50:21;;;;;;;0.68;0.68;;;;;;;2.07;88.25;96032.78;4927346;29;20127;-75
2020/12/28 00:52:47;;;;;;;4.13;0.88;;;;;;;2.10;87.26;96034.84;4926372;29;20075;-75
2020/12/28 00:55:12;;;;;;;1.48;1.10;;;;;;;2.03;87.69;96023.75;4905809;29;20391;-75
2020/12/28 00:57:48;;;;;;;2.28;1.02;;;;;;;1.99;88.32;96031.69;4909923;29;20439;-75
2020/12/28 01:00:16;;;;;;;9.75;1.55;;;;;;;1.91;88.07;96022.50;4896612;29;20435;-74
2020/12/28 01:02:41;;;;;;;3.53;1.10;;;;;;;1.89;88.87;96030.09;4937952;29;20778;-73
2020/12/28 01:05:07;;;;;;;10.32;1.55;;;;;;;1.90;88.58;96036.28;4910163;29;20036;-74
2020/12/28 01:07:34;;;;;;;7.82;1.70;;;;;;;1.87;88.22;96036.91;4938220;29;20028;-75
2020/12/28 01:10:00;;;;;;;1.23;1.10;;;;;;;1.86;88.14;96029.94;4904838;29;20034;-76
2020/12/28 01:12:25;;;;;;;1.77;1.10;;;;;;;1.88;87.60;96039.31;4918703;29;20044;-76
2020/12/28 01:14:51;;;;;;;4.75;1.50;;;;;;;1.82;89.01;96029.78;4923654;29;20034;-75
2020/12/28 01:17:16;;;;;;;3.53;1.63;;;;;;;1.84;87.77;96032.97;4931888;29;20023;-73
2020/12/28 01:19:42;;;;;;;6.53;1.30;;;;;;;1.79;88.70;96030.41;4897993;29;20384;-73
2020/12/28 01:22:08;;;;;;;5.95;1.30;;;;;;;1.74;88.28;96025.19;4924749;29;20040;-73
2020/12/28 01:24:33;;;;;;;4.60;1.42;;;;;;;1.79;87.88;96041.19;4886941;29;20195;-74
2020/12/28 01:26:59;;;;;;;2.20;1.63;;;;;;;1.74;88.31;96033.28;4895362;29;20047;-75
2020/12/28 01:29:24;;;;;;;4.20;1.77;;;;;;;1.73;87.60;96037.06;4890862;29;20036;-73
2020/12/28 01:31:49;;;;;;;1.60;1.50;;;;;;;1.71;88.37;96039.28;4933668;29;20115;-74
2020/12/28 01:34:15;;;;;;;1.60;1.40;;;;;;;1.72;89.17;96035.47;4913624;29;20036;-75
2020/12/28 01:36:40;;;;;;;2.65;2.40;;;;;;;1.65;88.48;96024.38;4922122;29;20395;-76
2020/12/28 01:39:06;;;;;;;3.63;1.80;;;;;;;1.71;88.52;96033.91;4893084;29;20040;-73
2020/12/28 01:41:31;;;;;;;1.58;1.48;;;;;;;1.70;88.42;96043.09;4905484;29;20024;-76
2020/12/28 01:43:56;;;;;;;5.10;1.90;;;;;;;1.63;89.18;96023.91;4894353;29;20043;-74
2020/12/28 01:46:23;;;;;;;4.03;1.75;;;;;;;1.67;87.97;96038.34;4892099;29;20059;-73
2020/12/28 01:48:50;;;;;;;1.73;1.63;;;;;;;1.60;88.38;96033.41;4906297;29;20043;-73
2020/12/28 01:51:16;;;;;;;3.35;1.52;;;;;;;1.63;89.18;96043.53;4932325;29;20019;-74
2020/12/28 01:53:42;;;;;;;1.90;1.75;;;;;;;1.59;87.72;96041.81;4920906;29;20067;-77
2020/12/28 01:56:07;;;;;;;1.30;1.30;;;;;;;1.52;87.64;96036.88;4940634;29;20504;-77
2020/12/28 01:58:33;;;;;;;1.25;1.20;;;;;;;1.47;88.18;96037.81;4909953;29;20048;-78
2020/12/28 02:00:59;;;;;;;1.70;1.60;;;;;;;1.39;88.45;96039.41;4932821;29;20032;-78
2020/12/28 02:03:26;;;;;;;2.40;1.52;;;;;;;1.33;87.92;96037.97;4910465;29;20032;-76
2020/12/28 02:05:52;;;;;;;2.15;1.20;;;;;;;1.29;87.60;96049.66;4921753;29;20035;-76
2020/12/28 02:08:18;;;;;;;3.40;0.85;;;;;;;1.21;88.46;96052.03;4918991;29;20032;-77
2020/12/28 02:10:43;;;;;;;0.80;0.80;;;;;;;1.17;87.49;96045.69;4916465;29;20031;-77
2020/12/28 02:13:09;;;;;;;1.90;1.30;;;;;;;1.09;88.22;96032.97;4938180;29;20035;-77
2020/12/28 02:15:35;;;;;;;3.75;1.75;;;;;;;1.11;88.65;96038.84;4935932;29;20116;-77
2020/12/28 02:18:00;;;;;;;1.80;1.23;;;;;;;1.15;88.29;96044.41;4938020;29;20042;-77
2020/12/28 02:20:25;;;;;;;0.98;0.98;;;;;;;1.19;88.74;96043.44;4928127;29;20031;-78
2020/12/28 02:22:51;;;;;;;1.42;1.33;;;;;;;1.31;88.95;96052.81;4908331;29;20027;-77
2020/12/28 02:25:17;;;;;;;1.95;1.33;;;;;;;1.47;90.00;96050.50;4912169;29;20040;-78
2020/12/28 02:27:42;;;;;;;1.38;1.30;;;;;;;1.59;88.95;96041.81;4918760;29;20036;-78
2020/12/28 02:30:07;;;;;;;5.57;1.20;;;;;;;1.64;89.25;96038.97;4908703;29;20130;-76
2020/12/28 02:32:33;;;;;;;3.97;1.05;;;;;;;1.62;89.19;96041.16;4930707;29;20036;-78
2020/12/28 02:34:58;;;;;;;1.67;1.30;;;;;;;1.57;89.07;96037.50;4905957;29;20951;-76
2020/12/28 02:37:24;;;;;;;4.13;1.30;;;;;;;1.52;88.54;96035.00;4925026;29;20032;-77
2020/12/28 02:39:50;;;;;;;1.90;0.93;;;;;;;1.41;88.61;96025.63;4932967;29;20083;-77
2020/12/28 02:42:15;;;;;;;0.95;0.95;;;;;;;1.43;87.78;96018.03;4910850;29;20040;-77
2020/12/28 02:44:40;;;;;;;0.57;0.55;;;;;;;1.40;88.43;96024.03;4917360;29;20446;-77
2020/12/28 02:47:06;;;;;;;0.50;0.50;;;;;;;1.37;88.16;96024.66;4929067;29;20056;-77
2020/12/28 02:49:31;;;;;;;4.18;0.70;;;;;;;1.33;89.07;96012.94;4937916;29;20084;-77
2020/12/28 02:51:57;;;;;;;2.05;1.55;;;;;;;1.34;88.41;96012.63;4896125;29;20028;-78
2020/12/28 02:54:22;;;;;;;1.45;1.33;;;;;;;1.33;88.51;96010.22;4929486;29;20825;-79
2020/12/28 02:56:47;;;;;;;1.40;1.30;;;;;;;1.32;89.48;96005.97;4884654;29;20040;-78
2020/12/28 02:59:13;;;;;;;1.30;1.20;;;;;;;1.32;88.98;96000.59;4916696;29;20375;-77
2020/12/28 03:01:38;;;;;;;0.90;0.90;;;;;;;1.18;88.98;95980.00;4892688;29;20039;-77
2020/12/28 03:04:04;;;;;;;0.60;0.60;;;;;;;1.22;88.30;95986.31;4917893;29;20105;-77
2020/12/28 03:06:30;;;;;;;0.60;0.60;;;;;;;1.17;87.94;95983.78;4915226;29;20502;-79
2020/12/28 03:08:55;;;;;;;0.47;0.47;;;;;;;1.13;88.13;95973.97;4923831;29;20024;-79
2020/12/28 03:11:21;;;;;;;0.30;0.30;;;;;;;1.16;88.70;95987.56;4927975;29;20178;-76
2020/12/28 03:13:46;;;;;;;0.20;0.20;;;;;;;1.14;88.44;95984.41;4946790;29;20032;-78
2020/12/28 03:16:12;;;;;;;0.55;0.40;;;;;;;1.08;88.18;95980.28;4908214;29;20481;-78
2020/12/28 03:18:38;;;;;;;0.45;0.45;;;;;;;1.06;87.87;95971.72;4927548;29;20074;-78
2020/12/28 03:21:03;;;;;;;0.47;0.43;;;;;;;1.02;88.20;95957.31;4913902;29;20496;-78
2020/12/28 03:23:29;;;;;;;0.30;0.30;;;;;;;0.98;88.91;95948.28;4921878;29;20031;-78
2020/12/28 03:25:54;;;;;;;0.50;0.30;;;;;;;0.96;87.80;95948.59;4922752;29;20094;-79
2020/12/28 03:28:19;;;;;;;0.30;0.30;;;;;;;0.87;87.65;95932.44;4891558;29;20042;-79
2020/12/28 03:30:45;;;;;;;0.40;0.32;;;;;;;0.85;88.18;95918.53;4897515;29;20040;-80
2020/12/28 03:33:10;;;;;;;0.10;0.10;;;;;;;0.80;87.99;95926.72;4886124;29;20095;-80
2020/12/28 03:35:36;;;;;;;0.30;0.30;;;;;;;0.79;87.81;95917.09;4910179;29;20032;-80
2020/12/28 03:38:01;;;;;;;0.22;0.20;;;;;;;0.74;88.68;95911.84;4914832;29;20091;-78
2020/12/28 03:40:26;;;;;;;0.32;0.32;;;;;;;0.74;88.14;95903.00;4883128;29;20479;-78
2020/12/28 03:42:52;;;;;;;0.28;0.25;;;;;;;0.72;88.25;95907.91;4890324;29;20052;-78
2020/12/28 03:45:19;;;;;;;0.50;0.50;;;;;;;0.71;89.08;95909.78;4926301;29;20039;-77
2020/12/28 03:47:45;;;;;;;0.38;0.20;;;;;;;0.66;87.90;95907.25;4903582;29;20064;-78
2020/12/28 03:50:10;;;;;;;0.43;0.30;;;;;;;0.69;88.36;95920.06;4937813;29;20038;-80
2020/12/28 03:52:39;;;;;;;1.23;0.52;;;;;;;0.69;87.92;95915.47;4920007;29;20081;-78
2020/12/28 03:55:08;;;;;;;0.43;0.40;;;;;;;0.64;88.30;95914.81;4914916;29;20053;-77
2020/12/28 03:57:33;;;;;;;1.65;0.30;;;;;;;0.68;88.97;95924.63;4913895;29;20042;-76
2020/12/28 03:59:59;;;;;;;0.77;0.60;;;;;;;0.69;88.40;95930.81;4915921;29;20711;-77
2020/12/28 04:02:25;;;;;;;0.50;0.50;;;;;;;0.66;88.67;95915.31;4928160;29;20047;-78
2020/12/28 04:04:51;;;;;;;4.00;0.88;;;;;;;0.62;88.53;95925.09;4919592;29;20035;-77
2020/12/28 04:07:16;;;;;;;2.28;1.13;;;;;;;0.64;87.82;95926.38;4933943;29;20414;-78
2020/12/28 04:09:42;;;;;;;0.70;0.60;;;;;;;0.61;89.21;95926.19;4897603;29;20035;-79
2020/12/28 04:12:07;;;;;;;2.25;0.40;;;;;;;0.60;88.22;95933.47;4932626;29;20132;-78
2020/12/28 04:14:33;;;;;;;0.22;0.22;;;;;;;0.57;88.36;95917.97;4899322;29;20135;-78
2020/12/28 04:16:58;;;;;;;0.20;0.20;;;;;;;0.53;87.94;95911.63;4909562;29;20040;-79
2020/12/28 04:19:24;;;;;;;1.30;0.52;;;;;;;0.52;88.93;95921.56;4934975;29;20040;-79
2020/12/28 04:21:49;;;;;;;0.90;0.50;;;;;;;0.53;88.92;95919.69;4915940;29;20380;-78
2020/12/28 04:24:17;;;;;;;0.68;0.60;;;;;;;0.54;88.48;95923.16;4924912;29;20028;-78
2020/12/28 04:26:43;;;;;;;0.60;0.47;;;;;;;0.54;89.10;95926.66;4923937;29;20044;-77
2020/12/28 04:29:11;;;;;;;0.20;0.20;;;;;;;0.50;89.05;95918.41;4932465;29;20359;-78
2020/12/28 04:31:36;;;;;;;1.70;0.57;;;;;;;0.45;89.25;95909.69;4932993;29;20046;-81
2020/12/28 04:34:02;;;;;;;0.30;0.30;;;;;;;0.49;88.66;95906.06;4926594;29;20529;-81
2020/12/28 04:36:27;;;;;;;0.50;0.50;;;;;;;0.50;88.69;95891.53;4911269;29;20039;-80
2020/12/28 04:38:53;;;;;;;0.50;0.43;;;;;;;0.56;89.29;95902.16;4909221;29;20534;-80
2020/12/28 04:41:19;;;;;;;0.50;0.50;;;;;;;0.57;88.73;95893.78;4941951;29;20052;-81
2020/12/28 04:43:44;;;;;;;0.40;0.30;;;;;;;0.56;88.88;95888.72;4943087;29;20036;-78
2020/12/28 04:46:10;;;;;;;0.38;0.35;;;;;;;0.58;89.11;95875.75;4934690;29;20103;-79
2020/12/28 04:48:35;;;;;;;1.30;0.50;;;;;;;0.60;89.19;95873.53;4917107;29;20059;-80
2020/12/28 04:51:01;;;;;;;0.40;0.40;;;;;;;0.61;89.31;95875.13;4923932;29;20032;-80
2020/12/28 04:53:29;;;;;;;0.65;0.35;;;;;;;0.64;89.75;95879.88;4921197;29;20043;-76
2020/12/28 04:55:55;;;;;;;2.88;0.47;;;;;;;0.63;88.47;95871.03;4921087;29;20544;-77
2020/12/28 04:58:20;;;;;;;0.90;0.50;;;;;;;0.69;89.16;95866.28;4934627;29;20051;-77
2020/12/28 05:00:46;;;;;;;0.75;0.40;;;;;;;0.68;89.29;95857.41;4915441;29;20040;-78
2020/12/28 05:03:13;;;;;;;1.80;0.50;;;;;;;0.78;89.90;95853.66;4929941;29;20032;-78
2020/12/28 05:05:45;;;;;;;0.32;0.22;;;;;;;0.77;89.13;95846.69;4915880;29;20032;-78
2020/12/28 05:08:12;;;;;;;3.38;0.50;;;;;;;0.85;89.15;95863.94;4925540;29;20031;-78
2020/12/28 05:10:38;;;;;;;0.43;0.40;;;;;;;0.82;89.82;95838.47;4931167;29;20032;-77
2020/12/28 05:13:08;;;;;;;0.20;0.20;;;;;;;0.85;88.46;95848.59;4896063;29;20044;-78
2020/12/28 05:15:34;;;;;;;0.75;0.20;;;;;;;0.92;88.66;95842.75;4931560;29;20036;-78
2020/12/28 05:18:00;;;;;;;0.28;0.25;;;;;;;0.93;88.58;95838.16;4917235;29;20099;-77
2020/12/28 05:20:25;;;;;;;2.97;0.50;;;;;;;0.97;89.57;95836.44;4907797;29;20038;-77
2020/12/28 05:22:54;;;;;;;0.40;0.40;;;;;;;1.03;89.48;95843.22;4935300;29;20047;-76
2020/12/28 05:25:21;;;;;;;0.20;0.20;;;;;;;1.07;88.59;95838.00;4937724;29;20027;-78
2020/12/28 05:27:48;;;;;;;0.20;0.20;;;;;;;1.10;89.44;95827.41;4933691;29;20036;-78
2020/12/28 05:30:13;;;;;;;0.40;0.40;;;;;;;1.14;89.50;95822.97;4917238;29;20090;-76
2020/12/28 05:32:46;;;;;;;0.22;0.22;;;;;;;1.19;88.72;95822.81;4924058;29;20538;-76
2020/12/28 05:35:15;;;;;;;0.65;0.10;;;;;;;1.22;89.37;95811.41;4931634;29;20486;-77
2020/12/28 05:37:50;;;;;;;1.65;0.43;;;;;;;1.28;88.98;95811.25;4933111;29;20402;-77
2020/12/28 05:40:17;;;;;;;0.35;0.20;;;;;;;1.33;88.80;95800.31;4922941;29;20028;-79
2020/12/28 05:42:50;;;;;;;0.10;0.10;;;;;;;1.34;89.39;95802.72;4905269;29;20090;-78
2020/12/28 05:45:17;;;;;;;1.17;0.10;;;;;;;1.44;89.76;95804.25;4921167;29;20023;-79
2020/12/28 05:47:51;;;;;;;1.35;0.45;;;;;;;1.48;89.31;95780.97;4937780;29;20107;-79
2020/12/28 05:50:25;;;;;;;0.40;0.20;;;;;;;1.53;89.56;95767.34;4915305;29;20028;-79
2020/12/28 05:52:55;;;;;;;0.38;0.30;;;;;;;1.56;88.32;95769.41;4927279;29;20026;-78
2020/12/28 05:55:26;;;;;;;0.85;0.30;;;;;;;1.62;88.57;95761.13;4922058;29;20028;-79
2020/12/28 05:57:54;;;;;;;0.98;0.45;;;;;;;1.62;88.63;95758.44;4909734;29;20116;-78
2020/12/28 06:00:21;;;;;;;4.68;0.63;;;;;;;1.68;89.40;95765.22;4929710;29;20032;-80
2020/12/28 06:02:46;;;;;;;0.70;0.70;;;;;;;1.74;88.77;95755.88;4931907;29;20024;-80
2020/12/28 06:05:14;;;;;;;0.57;0.57;;;;;;;1.79;88.79;95750.28;4920572;29;20039;-80
2020/12/28 06:07:40;;;;;;;0.32;0.30;;;;;;;1.84;89.60;95750.13;4935627;29;20356;-78
2020/12/28 06:10:07;;;;;;;0.30;0.30;;;;;;;1.88;88.75;95736.78;4929826;29;20031;-78
2020/12/28 06:12:33;;;;;;;0.43;0.22;;;;;;;1.92;88.76;95733.13;4913336;29;20351;-78
2020/12/28 06:14:59;;;;;;;0.30;0.30;;;;;;;1.95;89.18;95730.91;4923869;29;20047;-76
2020/12/28 06:17:35;;;;;;;3.03;0.47;;;;;;;2.02;88.61;95731.19;4942537;29;20042;-79
2020/12/28 06:20:05;;;;;;;0.30;0.30;;;;;;;2.07;88.38;95739.06;4928655;29;20028;-77
2020/12/28 06:22:32;;;;;;;0.85;0.68;;;;;;;2.10;89.10;95735.72;4903353;29;20745;-78
2020/12/28 06:25:05;;;;;;;0.90;0.80;;;;;;;2.18;89.35;95745.69;4916897;29;20052;-78
2020/12/28 06:27:33;;;;;;;0.10;0.10;;;;;;;2.27;89.72;95738.31;4920467;29;20054;-77
2020/12/28 06:30:16;;;;;;;0.13;0.13;;;;;;;2.39;89.29;95734.91;4917828;29;20079;-78
2020/12/28 06:32:43;;;;;;;3.20;1.27;;;;;;;2.38;88.85;95732.53;4904334;29;20028;-78
2020/12/28 06:35:14;;;;;;;1.42;0.40;;;;;;;2.46;89.15;95739.78;4916972;29;20028;-79
2020/12/28 06:37:54;;;;;;;0.45;0.30;;;;;;;2.45;89.41;95727.41;4934148;29;20027;-78
2020/12/28 06:40:39;;;;;;;0.55;0.55;;;;;;;2.52;88.81;95732.31;4916088;29;20340;-76
2020/12/28 06:43:12;;;;;;;0.75;0.30;;;;;;;2.55;89.36;95754.00;4934270;29;20396;-75
2020/12/28 06:45:42;;;;;;;5.32;1.20;;;;;;;2.42;88.13;95771.22;4932056;29;20031;-75
2020/12/28 06:48:22;;;;;;;2.80;1.30;;;;;;;2.26;88.24;95774.50;4928327;29;20156;-75
2020/12/28 06:50:48;;;;;;;0.80;0.80;;;;;;;2.13;87.33;95770.09;4924735;29;20032;-75
2020/12/28 06:53:19;;;;;;;1.40;0.82;;;;;;;1.97;87.48;95775.28;4933139;29;20034;-76
2020/12/28 06:55:45;;;;;;;0.47;0.20;;;;;;;1.82;88.14;95768.50;4932840;29;20378;-77
2020/12/28 06:58:12;;;;;;;0.80;0.30;;;;;;;1.79;87.46;95769.16;4924517;29;20031;-77
2020/12/28 07:00:38;;;;;;;1.77;0.43;;;;;;;1.72;87.94;95766.97;4932481;29;20036;-77
2020/12/28 07:03:11;;;;;;;2.75;0.50;;;;;;;1.75;88.84;95781.69;4902870;29;20032;-76
2020/12/28 07:05:37;;;;;;;5.07;0.43;;;;;;;1.74;89.29;95774.72;4940699;29;20024;-80
2020/12/28 07:08:03;;;;;;;0.60;0.30;;;;;;;1.76;88.54;95777.88;4895948;29;20501;-80
2020/12/28 07:10:28;;;;;;;1.77;0.25;;;;;;;1.77;89.38;95767.88;4907436;29;20044;-78
2020/12/28 07:13:01;;;;;;;0.55;0.25;;;;;;;1.79;89.29;95762.97;4913316;29;20032;-78
2020/12/28 07:15:30;;;;;;;0.47;0.47;;;;;;;1.86;90.25;95772.13;4934764;29;20060;-80
2020/12/28 07:17:55;;;;;;;0.00;0.00;;;;;;;1.85;89.75;95764.38;4903359;29;20115;-81
2020/12/28 07:20:21;;;;;;;0.13;0.00;;;;;;;1.97;90.29;95769.06;4918706;29;20064;-80
2020/12/28 07:22:46;;;;;;;0.00;0.00;;;;;;;2.06;89.53;95780.63;4935631;29;20038;-80
2020/12/28 07:25:13;;;;;;;0.00;0.00;;;;;;;2.12;90.39;95779.31;4904388;29;20044;-77
2020/12/28 07:27:42;;;;;;;0.10;0.00;;;;;;;2.17;89.98;95771.03;4924427;29;20027;-77
2020/12/28 07:30:12;;;;;;;0.00;0.00;;;;;;;2.25;89.73;95767.50;4925463;29;20459;-79
2020/12/28 07:32:40;;;;;;;0.10;0.10;;;;;;;2.32;90.04;95771.59;4916824;29;20042;-77
2020/12/28 07:35:07;;;;;;;0.00;0.00;;;;;;;2.36;90.55;95767.13;4939313;29;20019;-77
2020/12/28 07:37:38;;;;;;;0.60;0.10;;;;;;;2.41;89.45;95750.75;4941424;29;20805;-78
2020/12/28 07:40:05;;;;;;;0.00;0.00;;;;;;;2.45;90.15;95765.16;4925832;29;20032;-79
2020/12/28 07:42:31;;;;;;;0.00;0.00;;;;;;;2.44;89.41;95752.81;4912811;29;20035;-78
2020/12/28 07:45:09;;;;;;;0.98;0.05;;;;;;;2.50;89.78;95748.81;4905844;29;20036;-78
2020/12/28 07:47:52;;;;;;;0.45;0.10;;;;;;;2.49;89.96;95747.22;4926107;29;20044;-77
2020/12/28 07:50:19;;;;;;;1.65;0.52;;;;;;;2.48;90.20;95751.03;4925276;29;20463;-77
2020/12/28 07:53:09;;;;;;;1.38;0.40;;;;;;;2.49;89.05;95743.75;4929215;29;20086;-77
2020/12/28 07:55:41;;;;;;;0.20;0.20;;;;;;;2.42;89.42;95738.88;4918107;29;20079;-78
2020/12/28 07:58:18;;;;;;;0.28;0.20;;;;;;;2.40;88.49;95741.09;4937554;29;20027;-76
2020/12/28 08:00:50;;;;;;;0.60;0.40;;;;;;;2.35;89.20;95746.69;4935537;29;20103;-78
2020/12/28 08:03:26;;;;;;;0.30;0.30;;;;;;;2.27;88.09;95743.72;4930741;29;20024;-77
2020/12/28 08:05:54;;;;;;;0.28;0.28;;;;;;;2.19;88.71;95754.53;4927457;29;20027;-76
2020/12/28 08:08:24;;;;;;;1.55;0.30;;;;;;;2.09;88.55;95755.72;4930484;29;20095;-78
2020/12/28 08:10:51;;;;;;;1.95;0.20;;;;;;;2.02;88.53;95756.22;4930007;29;20051;-77
2020/12/28 08:13:25;;;;;;;1.95;0.20;;;;;;;1.92;88.23;95760.06;4916665;29;20020;-78
2020/12/28 08:15:50;;;;;;;0.57;0.10;;;;;;;1.92;88.50;95762.75;4920695;29;20035;-80
2020/12/28 08:18:16;;;;;;;0.52;0.10;;;;;;;1.85;88.76;95757.06;4909980;29;20123;-77
2020/12/28 08:20:41;;;;;;;0.25;0.10;;;;;;;1.84;87.93;95768.97;4896219;29;20065;-76
2020/12/28 08:23:07;;;;;;;0.20;0.17;;;;;;;1.80;88.80;95767.25;4904877;29;20029;-75
2020/12/28 08:25:34;;;;;;;0.10;0.10;;;;;;;1.75;88.90;95773.59;4936372;29;20466;-76
2020/12/28 08:28:02;;;;;;;0.40;0.20;;;;;;;1.71;87.98;95764.59;4936093;29;20032;-78
2020/12/28 08:30:29;;;;;;;0.55;0.20;;;;;;;1.70;88.58;95773.78;4914246;29;20498;-78
2020/12/28 08:32:56;;;;;;;0.10;0.10;;;;;;;1.69;88.27;95772.19;4932907;29;20510;-78
2020/12/28 08:35:23;;;;;;;0.03;0.00;;;;;;;1.70;88.72;95779.16;4918450;29;20035;-76
2020/12/28 08:37:52;;;;;;;0.00;0.00;;;;;;;1.72;88.84;95782.31;4919451;29;20123;-79
2020/12/28 08:40:23;;;;;;;0.00;0.00;;;;;;;1.72;88.03;95785.00;4924957;29;20035;-78
2020/12/28 08:42:56;;;;;;;0.00;0.00;;;;;;;1.76;88.88;95788.66;4940332;29;20027;-74
2020/12/28 08:45:26;;;;;;;0.15;0.00;;;;;;;1.77;89.25;95800.19;4917487;29;20038;-78
2020/12/28 08:47:58;;;;;;;0.00;0.00;;;;;;;1.75;89.52;95800.53;4916168;29;20051;-76
2020/12/28 08:50:26;;;;;;;0.10;0.10;;;;;;;1.78;88.85;95810.66;4934163;29;20035;-77
2020/12/28 08:52:59;;;;;;;0.00;0.00;;;;;;;1.84;88.41;95812.09;4922351;29;20083;-76
2020/12/28 08:55:25;;;;;;;0.03;0.03;;;;;;;1.87;88.88;95816.81;4918923;29;20447;-77
2020/12/28 08:57:55;;;;;;;0.00;0.00;;;;;;;1.80;88.89;95794.97;4918209;29;20051;-78
2020/12/28 09:00:27;;;;;;;3.20;0.00;;;;;;;1.91;88.63;95812.38;4929939;29;20098;-78
2020/12/28 09:02:55;;;;;;;0.28;0.22;;;;;;;1.95;88.81;95812.50;4920277;29;20032;-77
2020/12/28 09:05:21;;;;;;;0.08;0.08;;;;;;;2.08;88.87;95816.09;4925577;29;20035;-76
2020/12/28 09:07:47;;;;;;;0.20;0.10;;;;;;;2.14;88.81;95820.19;4895509;29;20491;-78
2020/12/28 09:10:14;;;;;;;0.28;0.10;;;;;;;2.24;88.51;95827.91;4917607;29;20390;-77
2020/12/28 09:12:40;;;;;;;0.15;0.15;;;;;;;2.33;89.57;95821.72;4927257;29;20446;-77
2020/12/28 09:15:10;;;;;;;1.20;0.10;;;;;;;2.53;89.90;95820.19;4935331;29;20035;-82
2020/12/28 09:17:35;;;;;;;0.10;0.10;;;;;;;2.78;89.72;95831.91;4917963;29;20384;-77
2020/12/28 09:20:12;;;;;;;1.45;0.15;;;;;;;3.11;90.10;95833.88;4928814;29;20111;-79
2020/12/28 09:22:46;;;;;;;0.10;0.10;;;;;;;3.42;90.67;95832.69;4935343;29;20138;-82
2020/12/28 09:25:12;;;;;;;0.20;0.20;;;;;;;3.71;90.42;95839.88;4904883;29;20032;-82
2020/12/28 09:27:37;;;;;;;0.15;0.15;;;;;;;3.93;89.87;95835.19;4938182;29;20028;-81
2020/12/28 09:30:07;;;;;;;0.15;0.15;;;;;;;4.18;89.63;95853.03;4905346;29;20008;-80
2020/12/28 09:32:33;;;;;;;0.20;0.17;;;;;;;4.36;89.96;95850.91;4952252;29;20019;-81
2020/12/28 09:35:01;;;;;;;0.17;0.17;;;;;;;4.54;89.49;95861.50;4940338;29;20031;-84
2020/12/28 09:37:27;;;;;;;0.22;0.22;;;;;;;4.72;89.58;95853.94;4936279;29;20478;-80
2020/12/28 09:39:52;;;;;;;0.32;0.20;;;;;;;4.90;89.50;95865.31;4935618;29;20074;-80
2020/12/28 09:42:18;;;;;;;0.47;0.30;;;;;;;5.01;88.81;95860.25;4934435;29;20055;-80
2020/12/28 09:44:43;;;;;;;0.20;0.05;;;;;;;5.20;89.01;95878.59;4924213;29;20007;-82
2020/12/28 09:47:09;;;;;;;0.20;0.10;;;;;;;5.31;88.93;95874.25;4920633;29;20052;-77
2020/12/28 09:49:34;;;;;;;0.00;0.00;;;;;;;5.37;88.76;95882.94;4939454;29;20086;-78
2020/12/28 09:52:01;;;;;;;0.40;0.32;;;;;;;5.44;88.81;95887.78;4916369;29;20028;-79
2020/12/28 09:54:26;;;;;;;0.20;0.20;;;;;;;5.37;88.50;95881.03;4922163;29;20028;-79
2020/12/28 09:56:52;;;;;;;0.40;0.40;;;;;;;5.37;88.02;95870.19;4910339;29;20038;-78
2020/12/28 09:59:18;;;;;;;0.08;0.00;;;;;;;5.47;88.65;95873.53;4919716;29;20084;-78
2020/12/28 10:01:45;;;;;;;0.20;0.20;;;;;;;5.45;88.46;95875.78;4924724;29;20032;-78
2020/12/28 10:04:12;;;;;;;0.13;0.13;;;;;;;5.49;88.37;95874.78;4929560;29;20032;-80
2020/12/28 10:06:38;;;;;;;0.13;0.13;;;;;;;5.55;88.52;95884.25;4910373;29;20071;-80
2020/12/28 10:09:10;;;;;;;0.10;0.10;;;;;;;5.74;89.09;95880.88;4899866;29;20040;-80
2020/12/28 10:11:35;;;;;;;0.28;0.28;;;;;;;6.36;90.27;95888.72;4916282;29;20103;-80
2020/12/28 10:14:01;;;;;;;1.27;1.25;;;;;;;7.56;89.99;95887.53;4925148;29;20445;-80
2020/12/28 10:16:29;;;;;;;1.02;0.80;;;;;;;9.00;89.05;95895.56;4909374;29;20024;-80
2020/12/28 10:18:55;;;;;;;0.60;0.60;;;;;;;10.29;86.02;95895.59;4924030;29;20502;-83
2020/12/28 10:21:22;;;;;;;0.40;0.40;;;;;;;11.52;83.27;95902.81;4927139;29;20114;-82
2020/12/28 10:23:50;;;;;;;0.22;0.22;;;;;;;12.38;79.17;95910.63;4926549;29;20032;-81
2020/12/28 10:26:20;;;;;;;0.22;0.22;;;;;;;12.40;77.52;95911.81;4936509;29;20020;-80
2020/12/28 10:28:51;;;;;;;0.00;0.00;;;;;;;11.98;77.80;95910.50;4940834;29;20020;-82
2020/12/28 10:31:18;;;;;;;0.10;0.10;;;;;;;11.42;78.64;95914.50;4919113;29;20478;-78
2020/12/28 10:33:45;;;;;;;0.10;0.10;;;;;;;10.80;79.93;95924.22;4923355;29;20024;-77
2020/12/28 10:36:24;;;;;;;0.05;0.05;;;;;;;10.19;82.10;95918.94;4928275;29;20034;-77
2020/12/28 10:38:51;;;;;;;0.30;0.13;;;;;;;9.78;83.22;95916.91;4926240;29;20035;-77
2020/12/28 10:41:24;;;;;;;0.20;0.20;;;;;;;10.17;85.85;95920.44;4920612;29;20036;-77
2020/12/28 10:44:07;;;;;;;0.20;0.20;;;;;;;10.55;84.86;95927.50;4923031;29;20044;-77
2020/12/28 10:46:34;;;;;;;0.30;0.20;;;;;;;10.82;83.72;95919.94;4914099;29;20425;-77
2020/12/28 10:48:59;;;;;;;0.30;0.30;;;;;;;11.39;83.45;95923.47;4925076;29;20039;-79
2020/12/28 10:51:25;;;;;;;0.22;0.20;;;;;;;11.85;81.95;95928.41;4919658;29;20019;-80
2020/12/28 10:53:51;;;;;;;0.20;0.13;;;;;;;11.95;80.86;95916.75;4925909;29;20040;-81
2020/12/28 10:56:24;;;;;;;0.20;0.20;;;;;;;11.79;80.57;95938.16;4931004;29;20024;-80
2020/12/28 10:58:49;;;;;;;0.30;0.22;;;;;;;11.65;81.79;95934.19;4922066;29;20035;-79
2020/12/28 11:01:15;;;;;;;0.22;0.22;;;;;;;12.46;81.93;95952.53;4909469;29;20058;-78
2020/12/28 11:03:43;;;;;;;0.73;0.40;;;;;;;12.72;78.53;95954.94;4928830;29;20103;-79
2020/12/28 11:06:08;;;;;;;0.10;0.10;;;;;;;12.43;79.14;95950.56;4914091;29;20055;-81
2020/12/28 11:08:37;;;;;;;0.40;0.15;;;;;;;12.19;79.13;95955.56;4916904;29;20031;-82
2020/12/28 11:11:02;;;;;;;0.32;0.32;;;;;;;11.63;78.74;95963.88;4946655;29;20035;-82
2020/12/28 11:13:28;;;;;;;1.30;0.20;;;;;;;10.98;79.46;95952.47;4949289;29;20100;-82
2020/12/28 11:15:53;;;;;;;0.38;0.38;;;;;;;10.72;81.06;95955.34;4938424;29;20040;-82
2020/12/28 11:18:31;;;;;;;;;;;;;;;;;;;;;
2020/12/28 11:21:01;;;;;;;1.65;0.45;;;;;;;11.17;80.07;95967.09;4947770;29;20127;-83
2020/12/28 11:24:07;;;;;;;;;;;;;;;;;;;;;
2020/12/28 11:26:18;;;;;;;0.70;0.70;;;;;;;11.66;77.94;95974.03;4921170;29;20043;-79
2020/12/28 11:28:54;;;;;;;;;;;;;;;;;;;;;
2020/12/28 11:31:20;;;;;;;0.45;0.35;;;;;;;11.32;77.41;95987.13;4926160;29;20122;-82
2020/12/28 11:33:56;;;;;;;;;;;;;;;;;;;;;
2020/12/28 11:36:30;;;;;;;0.40;0.30;;;;;;;11.33;81.24;95994.94;4946777;29;20115;-78
2020/12/28 11:38:56;;;;;;;0.35;0.30;;;;;;;11.58;81.29;95997.06;4934928;29;20055;-78
2020/12/28 11:41:21;;;;;;;0.40;0.40;;;;;;;11.74;81.65;95991.31;4920895;29;20032;-76
2020/12/28 11:43:47;;;;;;;1.15;1.05;;;;;;;12.30;82.18;96002.94;4923534;29;20140;-79
2020/12/28 11:46:13;;;;;;;1.05;1.05;;;;;;;13.44;81.66;96009.84;4927469;29;20027;-78
2020/12/28 11:48:39;;;;;;;5.35;1.52;;;;;;;14.96;78.60;96015.66;4921492;29;20262;-81